PWSweather.com
Personal Weather Stations
Station Observations
KGAROSWE1
Roswell (historic Mill Village), Roswell, GA 30075

Roswell (historic Mill Village)Roswell, GA 30075

Lat: 34.014545, Lon: -84.358498

Elevation: 1025

Station Type: Davis Vantage Vue

http://www.roswellweather.net

Latest ConditionsUpdated 5:06:06 PM EST Saturday, Dec 20, 2014
Currently Today's Max Today's Min Today's Average
Temperature 49.5°F9.7°C 50.6°F10.3°C 38.8°F3.8°C 43.3°F6.3°C
Dew Point 45.5°F7.5°C 46.4°F8.0°C 37.0°F2.8°C 40.9°F4.9°C
Winds Calm Calm 1.0 mph E1.6 kmh E - 0.0 mph 0.0 kmh
Wind Gusts -- 2.0 mph3.2 kmh - -
Humidity 86% 98% 83% 91%
Pressure 30.18 in1022.0 mb 30.23 in1023.7 mb 30.13 in1020.3 mb -
Hour Temp Dew Point Humidity Winds Wind Gusts Pressure Precip Precip Rate Daily Precip Total
05:06 PM 49.5°F9.7°C 45.5°F7.5°C 86% Calm Calm -- 30.18 in1022.0 mb 0.00 in0.0 mm 0.00 in/hr0.0 mm/hr 0.03 in0.8 mm
04:58 PM 49.6°F9.8°C 45.6°F7.6°C 86% Calm Calm -- 30.18 in1022.0 mb 0.00 in0.0 mm 0.00 in/hr0.0 mm/hr 0.03 in0.8 mm
04:50 PM 49.7°F9.8°C 45.4°F7.4°C 85% Calm Calm 1.0 mph1.6 kmh 30.18 in1022.0 mb 0.00 in0.0 mm 0.00 in/hr0.0 mm/hr 0.03 in0.8 mm
04:42 PM 49.9°F9.9°C 45.6°F7.6°C 85% Calm Calm -- 30.18 in1022.0 mb 0.00 in0.0 mm 0.00 in/hr0.0 mm/hr 0.03 in0.8 mm
04:34 PM 49.9°F9.9°C 45.6°F7.6°C 85% Calm Calm -- 30.18 in1022.0 mb 0.00 in0.0 mm 0.00 in/hr0.0 mm/hr 0.03 in0.8 mm
04:26 PM 49.9°F9.9°C 45.6°F7.6°C 85% Calm Calm -- 30.18 in1022.0 mb 0.00 in0.0 mm 0.00 in/hr0.0 mm/hr 0.03 in0.8 mm
04:18 PM 49.8°F9.9°C 45.5°F7.5°C 85% Calm Calm -- 30.17 in1021.7 mb 0.00 in0.0 mm 0.00 in/hr0.0 mm/hr 0.03 in0.8 mm
04:10 PM 49.9°F9.9°C 45.6°F7.6°C 85% Calm Calm -- 30.17 in1021.7 mb 0.00 in0.0 mm 0.00 in/hr0.0 mm/hr 0.03 in0.8 mm
04:02 PM 50.0°F10.0°C 45.7°F7.6°C 85% Calm Calm -- 30.17 in1021.7 mb 0.00 in0.0 mm 0.00 in/hr0.0 mm/hr 0.03 in0.8 mm
03:54 PM 50.1°F10.1°C 45.5°F7.5°C 84% Calm Calm -- 30.17 in1021.7 mb 0.00 in0.0 mm 0.00 in/hr0.0 mm/hr 0.03 in0.8 mm
03:46 PM 50.0°F10.0°C 45.4°F7.4°C 84% Calm Calm -- 30.17 in1021.7 mb 0.00 in0.0 mm 0.00 in/hr0.0 mm/hr 0.03 in0.8 mm
03:38 PM 50.2°F10.1°C 45.6°F7.6°C 84% Calm Calm -- 30.17 in1021.7 mb 0.00 in0.0 mm 0.00 in/hr0.0 mm/hr 0.03 in0.8 mm
03:30 PM 50.3°F10.2°C 46.0°F7.8°C 85% Calm Calm -- 30.17 in1021.7 mb 0.00 in0.0 mm 0.00 in/hr0.0 mm/hr 0.03 in0.8 mm
03:22 PM 50.3°F10.2°C 45.7°F7.6°C 84% Calm Calm 1.0 mph1.6 kmh 30.17 in1021.7 mb 0.00 in0.0 mm 0.00 in/hr0.0 mm/hr 0.03 in0.8 mm
03:14 PM 50.6°F10.3°C 46.3°F7.9°C 85% Calm Calm 1.0 mph1.6 kmh 30.16 in1021.3 mb 0.00 in0.0 mm 0.00 in/hr0.0 mm/hr 0.03 in0.8 mm
03:06 PM 50.6°F10.3°C 45.6°F7.6°C 83% 1.0 mph NE1.6 kmh NE 1.0 mph1.6 kmh 30.16 in1021.3 mb 0.00 in0.0 mm 0.00 in/hr0.0 mm/hr 0.03 in0.8 mm
02:58 PM 50.5°F10.3°C 45.9°F7.7°C 84% Calm Calm -- 30.16 in1021.3 mb 0.00 in0.0 mm 0.00 in/hr0.0 mm/hr 0.03 in0.8 mm
02:50 PM 50.4°F10.2°C 46.4°F8.0°C 86% Calm Calm -- 30.16 in1021.3 mb 0.00 in0.0 mm 0.00 in/hr0.0 mm/hr 0.03 in0.8 mm
02:42 PM 49.9°F9.9°C 45.3°F7.4°C 84% Calm Calm -- 30.16 in1021.3 mb 0.00 in0.0 mm 0.00 in/hr0.0 mm/hr 0.03 in0.8 mm
02:34 PM 49.9°F9.9°C 45.3°F7.4°C 84% Calm Calm 1.0 mph1.6 kmh 30.17 in1021.7 mb 0.00 in0.0 mm 0.00 in/hr0.0 mm/hr 0.03 in0.8 mm
02:26 PM 49.9°F9.9°C 45.3°F7.4°C 84% Calm Calm -- 30.17 in1021.7 mb 0.00 in0.0 mm 0.00 in/hr0.0 mm/hr 0.03 in0.8 mm
02:18 PM 49.7°F9.8°C 45.4°F7.4°C 85% Calm Calm 1.0 mph1.6 kmh 30.17 in1021.7 mb 0.00 in0.0 mm 0.00 in/hr0.0 mm/hr 0.03 in0.8 mm
02:10 PM 49.5°F9.7°C 45.2°F7.3°C 85% Calm Calm 1.0 mph1.6 kmh 30.17 in1021.7 mb 0.00 in0.0 mm 0.00 in/hr0.0 mm/hr 0.03 in0.8 mm
02:02 PM 49.5°F9.7°C 45.2°F7.3°C 85% Calm Calm -- 30.17 in1021.7 mb 0.00 in0.0 mm 0.00 in/hr0.0 mm/hr 0.03 in0.8 mm
01:52 PM 49.2°F9.6°C 45.5°F7.5°C 87% Calm Calm 1.0 mph1.6 kmh 30.17 in1021.7 mb 0.00 in0.0 mm 0.00 in/hr0.0 mm/hr 0.03 in0.8 mm
01:42 PM 48.9°F9.4°C 45.2°F7.3°C 87% 1.0 mph NE1.6 kmh NE 1.0 mph1.6 kmh 30.18 in1022.0 mb 0.00 in0.0 mm 0.00 in/hr0.0 mm/hr 0.03 in0.8 mm
01:30 PM 49.0°F9.4°C 45.6°F7.6°C 88% Calm Calm -- 30.18 in1022.0 mb 0.00 in0.0 mm 0.00 in/hr0.0 mm/hr 0.03 in0.8 mm
01:22 PM 49.0°F9.4°C 45.6°F7.6°C 88% Calm Calm -- 30.18 in1022.0 mb 0.00 in0.0 mm 0.00 in/hr0.0 mm/hr 0.03 in0.8 mm
01:14 PM 49.1°F9.5°C 45.4°F7.4°C 87% Calm Calm 2.0 mph3.2 kmh 30.19 in1022.4 mb 0.00 in0.0 mm 0.00 in/hr0.0 mm/hr 0.03 in0.8 mm
01:06 PM 49.0°F9.4°C 45.3°F7.4°C 87% Calm Calm -- 30.19 in1022.4 mb 0.00 in0.0 mm 0.00 in/hr0.0 mm/hr 0.03 in0.8 mm
12:58 PM 48.9°F9.4°C 45.2°F7.3°C 87% Calm Calm -- 30.19 in1022.4 mb 0.00 in0.0 mm 0.00 in/hr0.0 mm/hr 0.03 in0.8 mm
12:50 PM 48.6°F9.2°C 44.9°F7.2°C 87% Calm Calm -- 30.19 in1022.4 mb 0.00 in0.0 mm 0.00 in/hr0.0 mm/hr 0.03 in0.8 mm
12:42 PM 48.6°F9.2°C 44.9°F7.2°C 87% 1.0 mph E1.6 kmh E 1.0 mph1.6 kmh 30.20 in1022.7 mb 0.00 in0.0 mm 0.00 in/hr0.0 mm/hr 0.03 in0.8 mm
12:34 PM 48.5°F9.2°C 45.1°F7.3°C 88% Calm Calm -- 30.20 in1022.7 mb 0.00 in0.0 mm 0.00 in/hr0.0 mm/hr 0.03 in0.8 mm
12:26 PM 48.3°F9.1°C 44.9°F7.2°C 88% Calm Calm -- 30.20 in1022.7 mb 0.00 in0.0 mm 0.00 in/hr0.0 mm/hr 0.03 in0.8 mm
12:16 PM 48.2°F9.0°C 44.8°F7.1°C 88% Calm Calm -- 30.21 in1023.0 mb 0.00 in0.0 mm 0.00 in/hr0.0 mm/hr 0.03 in0.8 mm
12:06 PM 48.0°F8.9°C 44.9°F7.2°C 89% Calm Calm -- 30.21 in1023.0 mb 0.00 in0.0 mm 0.00 in/hr0.0 mm/hr 0.03 in0.8 mm
11:56 AM 47.9°F8.8°C 44.8°F7.1°C 89% Calm Calm -- 30.21 in1023.0 mb 0.00 in0.0 mm 0.00 in/hr0.0 mm/hr 0.03 in0.8 mm
11:48 AM 47.9°F8.8°C 45.4°F7.4°C 91% Calm Calm -- 30.21 in1023.0 mb 0.00 in0.0 mm 0.00 in/hr0.0 mm/hr 0.03 in0.8 mm
11:40 AM 47.4°F8.6°C 44.9°F7.2°C 91% Calm Calm -- 30.21 in1023.0 mb 0.00 in0.0 mm 0.00 in/hr0.0 mm/hr 0.03 in0.8 mm
11:32 AM 47.3°F8.5°C 44.8°F7.1°C 91% Calm Calm -- 30.22 in1023.4 mb 0.00 in0.0 mm 0.00 in/hr0.0 mm/hr 0.03 in0.8 mm
11:24 AM 47.0°F8.3°C 45.1°F7.3°C 93% Calm Calm 2.0 mph3.2 kmh 30.22 in1023.4 mb 0.00 in0.0 mm 0.00 in/hr0.0 mm/hr 0.03 in0.8 mm
11:16 AM 46.5°F8.1°C 44.6°F7.0°C 93% Calm Calm -- 30.22 in1023.4 mb 0.00 in0.0 mm 0.00 in/hr0.0 mm/hr 0.03 in0.8 mm
11:08 AM 46.2°F7.9°C 44.0°F6.7°C 92% Calm Calm 1.0 mph1.6 kmh 30.22 in1023.4 mb 0.00 in0.0 mm 0.00 in/hr0.0 mm/hr 0.03 in0.8 mm
11:00 AM 46.2°F7.9°C 44.6°F7.0°C 94% Calm Calm 1.0 mph1.6 kmh 30.22 in1023.4 mb 0.00 in0.0 mm 0.00 in/hr0.0 mm/hr 0.03 in0.8 mm
10:52 AM 45.9°F7.7°C 44.3°F6.8°C 94% Calm Calm 2.0 mph3.2 kmh 30.23 in1023.7 mb 0.00 in0.0 mm 0.00 in/hr0.0 mm/hr 0.03 in0.8 mm
10:44 AM 45.5°F7.5°C 44.2°F6.8°C 95% Calm Calm 2.0 mph3.2 kmh 30.23 in1023.7 mb 0.00 in0.0 mm 0.00 in/hr0.0 mm/hr 0.03 in0.8 mm
10:36 AM 45.3°F7.4°C 44.2°F6.8°C 96% Calm Calm -- 30.23 in1023.7 mb 0.00 in0.0 mm 0.00 in/hr0.0 mm/hr 0.03 in0.8 mm
10:28 AM 45.5°F7.5°C 44.7°F7.1°C 97% Calm Calm 1.0 mph1.6 kmh 30.23 in1023.7 mb 0.00 in0.0 mm 0.00 in/hr0.0 mm/hr 0.03 in0.8 mm
10:20 AM 45.5°F7.5°C 45.0°F7.2°C 98% Calm Calm 1.0 mph1.6 kmh 30.23 in1023.7 mb 0.00 in0.0 mm 0.00 in/hr0.0 mm/hr 0.03 in0.8 mm
10:12 AM 45.0°F7.2°C 44.2°F6.8°C 97% Calm Calm -- 30.23 in1023.7 mb 0.00 in0.0 mm 0.00 in/hr0.0 mm/hr 0.03 in0.8 mm
10:04 AM 44.8°F7.1°C 44.3°F6.8°C 98% Calm Calm 1.0 mph1.6 kmh 30.23 in1023.7 mb 0.00 in0.0 mm 0.00 in/hr0.0 mm/hr 0.03 in0.8 mm
09:56 AM 44.8°F7.1°C 44.3°F6.8°C 98% Calm Calm -- 30.23 in1023.7 mb 0.00 in0.0 mm 0.00 in/hr0.0 mm/hr 0.03 in0.8 mm
09:48 AM 44.7°F7.1°C 44.2°F6.8°C 98% Calm Calm -- 30.22 in1023.4 mb 0.00 in0.0 mm 0.00 in/hr0.0 mm/hr 0.03 in0.8 mm
09:40 AM 43.9°F6.6°C 43.4°F6.3°C 98% Calm Calm -- 30.22 in1023.4 mb 0.00 in0.0 mm 0.00 in/hr0.0 mm/hr 0.03 in0.8 mm
09:32 AM 43.5°F6.4°C 42.7°F5.9°C 97% Calm Calm -- 30.22 in1023.4 mb 0.00 in0.0 mm 0.00 in/hr0.0 mm/hr 0.03 in0.8 mm
09:24 AM 43.4°F6.3°C 42.6°F5.9°C 97% Calm Calm -- 30.22 in1023.4 mb 0.00 in0.0 mm 0.00 in/hr0.0 mm/hr 0.03 in0.8 mm
09:16 AM 43.4°F6.3°C 42.6°F5.9°C 97% Calm Calm -- 30.22 in1023.4 mb 0.00 in0.0 mm 0.00 in/hr0.0 mm/hr 0.03 in0.8 mm
09:08 AM 43.3°F6.3°C 42.5°F5.8°C 97% Calm Calm -- 30.21 in1023.0 mb 0.00 in0.0 mm 0.00 in/hr0.0 mm/hr 0.03 in0.8 mm
09:00 AM 43.1°F6.2°C 42.3°F5.7°C 97% Calm Calm -- 30.21 in1023.0 mb 0.00 in0.0 mm 0.00 in/hr0.0 mm/hr 0.03 in0.8 mm
08:52 AM 38.8°F3.8°C 37.0°F2.8°C 93% Calm Calm -- 30.20 in1022.7 mb 0.00 in0.0 mm 0.00 in/hr0.0 mm/hr 0.03 in0.8 mm
08:42 AM 38.8°F3.8°C 37.0°F2.8°C 93% Calm Calm -- 30.21 in1023.0 mb 0.00 in0.0 mm 0.00 in/hr0.0 mm/hr 0.03 in0.8 mm
08:30 AM 38.8°F3.8°C 37.0°F2.8°C 93% Calm Calm -- 30.21 in1023.0 mb 0.00 in0.0 mm 0.00 in/hr0.0 mm/hr 0.03 in0.8 mm
08:20 AM 38.8°F3.8°C 37.0°F2.8°C 93% Calm Calm -- 30.21 in1023.0 mb 0.00 in0.0 mm 0.00 in/hr0.0 mm/hr 0.03 in0.8 mm
08:12 AM 38.8°F3.8°C 37.0°F2.8°C 93% Calm Calm -- 30.21 in1023.0 mb 0.00 in0.0 mm 0.00 in/hr0.0 mm/hr 0.03 in0.8 mm
08:04 AM 38.8°F3.8°C 37.0°F2.8°C 93% Calm Calm -- 30.20 in1022.7 mb 0.00 in0.0 mm 0.00 in/hr0.0 mm/hr 0.03 in0.8 mm
07:56 AM 38.8°F3.8°C 37.0°F2.8°C 93% Calm Calm -- 30.20 in1022.7 mb 0.00 in0.0 mm 0.00 in/hr0.0 mm/hr 0.03 in0.8 mm
07:48 AM 38.8°F3.8°C 37.0°F2.8°C 93% Calm Calm -- 30.20 in1022.7 mb 0.00 in0.0 mm 0.00 in/hr0.0 mm/hr 0.03 in0.8 mm
07:40 AM 38.8°F3.8°C 37.0°F2.8°C 93% Calm Calm -- 30.19 in1022.4 mb 0.00 in0.0 mm 0.00 in/hr0.0 mm/hr 0.03 in0.8 mm
07:32 AM 38.8°F3.8°C 37.0°F2.8°C 93% Calm Calm -- 30.18 in1022.0 mb 0.00 in0.0 mm 0.00 in/hr0.0 mm/hr 0.03 in0.8 mm
07:24 AM 38.8°F3.8°C 37.0°F2.8°C 93% Calm Calm -- 30.18 in1022.0 mb 0.00 in0.0 mm 0.00 in/hr0.0 mm/hr 0.03 in0.8 mm
07:16 AM 38.8°F3.8°C 37.0°F2.8°C 93% Calm Calm -- 30.17 in1021.7 mb 0.00 in0.0 mm 0.00 in/hr0.0 mm/hr 0.03 in0.8 mm
07:08 AM 38.8°F3.8°C 37.0°F2.8°C 93% Calm Calm -- 30.19 in1022.4 mb 0.00 in0.0 mm 0.00 in/hr0.0 mm/hr 0.03 in0.8 mm
07:00 AM 38.8°F3.8°C 37.0°F2.8°C 93% Calm Calm -- 30.19 in1022.4 mb 0.00 in0.0 mm 0.00 in/hr0.0 mm/hr 0.03 in0.8 mm
06:52 AM 38.8°F3.8°C 37.0°F2.8°C 93% Calm Calm -- 30.19 in1022.4 mb 0.00 in0.0 mm 0.00 in/hr0.0 mm/hr 0.03 in0.8 mm
06:44 AM 38.8°F3.8°C 37.0°F2.8°C 93% Calm Calm -- 30.19 in1022.4 mb 0.00 in0.0 mm 0.00 in/hr0.0 mm/hr 0.03 in0.8 mm
06:36 AM 38.8°F3.8°C 37.0°F2.8°C 93% Calm Calm -- 30.18 in1022.0 mb 0.00 in0.0 mm 0.00 in/hr0.0 mm/hr 0.03 in0.8 mm
06:28 AM 38.8°F3.8°C 37.0°F2.8°C 93% Calm Calm -- 30.16 in1021.3 mb 0.00 in0.0 mm 0.00 in/hr0.0 mm/hr 0.03 in0.8 mm
06:20 AM 38.8°F3.8°C 37.0°F2.8°C 93% Calm Calm -- 30.17 in1021.7 mb 0.00 in0.0 mm 0.00 in/hr0.0 mm/hr 0.03 in0.8 mm
06:12 AM 38.8°F3.8°C 37.0°F2.8°C 93% Calm Calm -- 30.16 in1021.3 mb 0.00 in0.0 mm 0.00 in/hr0.0 mm/hr 0.03 in0.8 mm
06:04 AM 38.8°F3.8°C 37.0°F2.8°C 93% Calm Calm -- 30.15 in1021.0 mb 0.00 in0.0 mm 0.00 in/hr0.0 mm/hr 0.03 in0.8 mm
05:56 AM 38.8°F3.8°C 37.0°F2.8°C 93% Calm Calm -- 30.15 in1021.0 mb 0.00 in0.0 mm 0.00 in/hr0.0 mm/hr 0.03 in0.8 mm
05:48 AM 38.8°F3.8°C 37.0°F2.8°C 93% Calm Calm -- 30.16 in1021.3 mb 0.00 in0.0 mm 0.00 in/hr0.0 mm/hr 0.03 in0.8 mm
05:40 AM 38.8°F3.8°C 37.0°F2.8°C 93% Calm Calm -- 30.16 in1021.3 mb 0.00 in0.0 mm 0.00 in/hr0.0 mm/hr 0.03 in0.8 mm
05:32 AM 38.8°F3.8°C 37.0°F2.8°C 93% Calm Calm -- 30.15 in1021.0 mb 0.00 in0.0 mm 0.00 in/hr0.0 mm/hr 0.03 in0.8 mm
05:24 AM 38.8°F3.8°C 37.0°F2.8°C 93% Calm Calm -- 30.15 in1021.0 mb 0.00 in0.0 mm 0.00 in/hr0.0 mm/hr 0.03 in0.8 mm
05:16 AM 38.8°F3.8°C 37.0°F2.8°C 93% Calm Calm -- 30.15 in1021.0 mb 0.00 in0.0 mm 0.00 in/hr0.0 mm/hr 0.03 in0.8 mm
05:08 AM 38.8°F3.8°C 37.0°F2.8°C 93% Calm Calm -- 30.16 in1021.3 mb 0.00 in0.0 mm 0.00 in/hr0.0 mm/hr 0.03 in0.8 mm
05:00 AM 38.8°F3.8°C 37.0°F2.8°C 93% Calm Calm -- 30.15 in1021.0 mb 0.00 in0.0 mm 0.00 in/hr0.0 mm/hr 0.03 in0.8 mm
04:52 AM 38.8°F3.8°C 37.0°F2.8°C 93% Calm Calm -- 30.15 in1021.0 mb 0.00 in0.0 mm 0.00 in/hr0.0 mm/hr 0.03 in0.8 mm
04:44 AM 38.8°F3.8°C 37.0°F2.8°C 93% Calm Calm -- 30.14 in1020.7 mb 0.00 in0.0 mm 0.00 in/hr0.0 mm/hr 0.03 in0.8 mm
04:36 AM 38.8°F3.8°C 37.0°F2.8°C 93% Calm Calm -- 30.14 in1020.7 mb 0.00 in0.0 mm 0.00 in/hr0.0 mm/hr 0.03 in0.8 mm
04:28 AM 38.8°F3.8°C 37.0°F2.8°C 93% Calm Calm -- 30.15 in1021.0 mb 0.00 in0.0 mm 0.00 in/hr0.0 mm/hr 0.03 in0.8 mm
04:20 AM 38.8°F3.8°C 37.0°F2.8°C 93% Calm Calm -- 30.15 in1021.0 mb 0.00 in0.0 mm 0.00 in/hr0.0 mm/hr 0.03 in0.8 mm
04:12 AM 38.8°F3.8°C 37.0°F2.8°C 93% Calm Calm -- 30.14 in1020.7 mb 0.00 in0.0 mm 0.00 in/hr0.0 mm/hr 0.03 in0.8 mm
04:04 AM 38.8°F3.8°C 37.0°F2.8°C 93% Calm Calm -- 30.14 in1020.7 mb 0.00 in0.0 mm 0.00 in/hr0.0 mm/hr 0.03 in0.8 mm
03:56 AM 38.8°F3.8°C 37.0°F2.8°C 93% Calm Calm -- 30.13 in1020.3 mb 0.00 in0.0 mm 0.00 in/hr0.0 mm/hr 0.03 in0.8 mm
03:48 AM 38.8°F3.8°C 37.0°F2.8°C 93% Calm Calm -- 30.13 in1020.3 mb 0.00 in0.0 mm 0.00 in/hr0.0 mm/hr 0.03 in0.8 mm
03:40 AM 38.8°F3.8°C 37.0°F2.8°C 93% Calm Calm -- 30.14 in1020.7 mb 0.00 in0.0 mm 0.00 in/hr0.0 mm/hr 0.03 in0.8 mm
03:32 AM 38.8°F3.8°C 37.0°F2.8°C 93% Calm Calm -- 30.14 in1020.7 mb 0.00 in0.0 mm 0.00 in/hr0.0 mm/hr 0.03 in0.8 mm
03:24 AM 38.8°F3.8°C 37.0°F2.8°C 93% Calm Calm -- 30.14 in1020.7 mb 0.00 in0.0 mm 0.00 in/hr0.0 mm/hr 0.03 in0.8 mm
03:16 AM 38.8°F3.8°C 37.0°F2.8°C 93% Calm Calm -- 30.15 in1021.0 mb 0.00 in0.0 mm 0.00 in/hr0.0 mm/hr 0.03 in0.8 mm
03:08 AM 38.8°F3.8°C 37.0°F2.8°C 93% Calm Calm -- 30.15 in1021.0 mb 0.00 in0.0 mm 0.00 in/hr0.0 mm/hr 0.03 in0.8 mm
03:00 AM 38.8°F3.8°C 37.0°F2.8°C 93% Calm Calm -- 30.15 in1021.0 mb 0.00 in0.0 mm 0.00 in/hr0.0 mm/hr 0.03 in0.8 mm
02:52 AM 38.8°F3.8°C 37.0°F2.8°C 93% Calm Calm -- 30.15 in1021.0 mb 0.00 in0.0 mm 0.00 in/hr0.0 mm/hr 0.03 in0.8 mm
02:44 AM 38.8°F3.8°C 37.0°F2.8°C 93% Calm Calm -- 30.15 in1021.0 mb 0.00 in0.0 mm 0.00 in/hr0.0 mm/hr 0.03 in0.8 mm
02:36 AM 38.8°F3.8°C 37.0°F2.8°C 93% Calm Calm -- 30.15 in1021.0 mb 0.00 in0.0 mm 0.00 in/hr0.0 mm/hr 0.03 in0.8 mm
02:28 AM 38.8°F3.8°C 37.0°F2.8°C 93% Calm Calm -- 30.16 in1021.3 mb 0.01 in0.3 mm 0.00 in/hr0.0 mm/hr 0.03 in0.8 mm
02:20 AM 38.8°F3.8°C 37.0°F2.8°C 93% Calm Calm -- 30.15 in1021.0 mb 0.01 in0.3 mm 0.00 in/hr0.0 mm/hr 0.03 in0.8 mm
02:12 AM 38.8°F3.8°C 37.0°F2.8°C 93% Calm Calm -- 30.15 in1021.0 mb 0.02 in0.5 mm 0.00 in/hr0.0 mm/hr 0.03 in0.8 mm
02:04 AM 38.8°F3.8°C 37.0°F2.8°C 93% Calm Calm -- 30.15 in1021.0 mb 0.02 in0.5 mm 0.00 in/hr0.0 mm/hr 0.03 in0.8 mm
01:56 AM 38.8°F3.8°C 37.0°F2.8°C 93% Calm Calm -- 30.16 in1021.3 mb 0.02 in0.5 mm 0.00 in/hr0.0 mm/hr 0.03 in0.8 mm
01:46 AM 39.6°F4.2°C 37.8°F3.2°C 93% Calm Calm -- 30.16 in1021.3 mb 0.02 in0.5 mm 0.00 in/hr0.0 mm/hr 0.03 in0.8 mm
01:36 AM 39.7°F4.3°C 37.6°F3.1°C 92% Calm Calm -- 30.16 in1021.3 mb 0.03 in0.8 mm 0.06 in/hr1.5 mm/hr 0.03 in0.8 mm
01:26 AM 39.9°F4.4°C 38.0°F3.3°C 93% Calm Calm -- 30.16 in1021.3 mb 0.02 in0.5 mm 0.00 in/hr0.0 mm/hr 0.02 in0.5 mm
01:16 AM 39.9°F4.4°C 37.8°F3.2°C 92% Calm Calm -- 30.16 in1021.3 mb 0.02 in0.5 mm 0.06 in/hr1.5 mm/hr 0.02 in0.5 mm
01:06 AM 39.9°F4.4°C 37.8°F3.2°C 92% Calm Calm -- 30.17 in1021.7 mb 0.01 in0.3 mm 0.00 in/hr0.0 mm/hr 0.01 in0.3 mm
12:56 AM 40.0°F4.4°C 38.1°F3.4°C 93% Calm Calm -- 30.17 in1021.7 mb 0.01 in0.3 mm 0.00 in/hr0.0 mm/hr 0.01 in0.3 mm
12:46 AM 40.1°F4.5°C 38.0°F3.3°C 92% Calm Calm -- 30.17 in1021.7 mb 0.01 in0.3 mm 0.06 in/hr1.5 mm/hr 0.01 in0.3 mm
12:36 AM 40.1°F4.5°C 38.0°F3.3°C 92% Calm Calm -- 30.18 in1022.0 mb 0.00 in0.0 mm 0.00 in/hr0.0 mm/hr 0.00 in0.0 mm
12:26 AM 40.1°F4.5°C 37.7°F3.2°C 91% Calm Calm -- 30.18 in1022.0 mb 0.00 in0.0 mm 0.00 in/hr0.0 mm/hr 0.00 in0.0 mm
12:18 AM 40.1°F4.5°C 37.7°F3.2°C 91% Calm Calm -- 30.18 in1022.0 mb 0.00 in0.0 mm 0.00 in/hr0.0 mm/hr 0.00 in0.0 mm
12:10 AM 40.4°F4.7°C 38.3°F3.5°C 92% Calm Calm -- 30.18 in1022.0 mb 0.00 in0.0 mm 0.00 in/hr0.0 mm/hr 0.00 in0.0 mm
12:02 AM 40.5°F4.7°C 38.1°F3.4°C 91% Calm Calm -- 30.18 in1022.0 mb 0.00 in0.0 mm 0.00 in/hr0.0 mm/hr 0.00 in0.0 mm